createdAt,value
2022-10-15T00:01:21.462Z,73.80
2022-10-15T00:03:48.255Z,73.73
2022-10-15T00:06:19.277Z,73.73
2022-10-15T00:08:47.224Z,73.54
2022-10-15T00:11:20.124Z,73.61
2022-10-15T00:13:47.035Z,73.71
2022-10-15T00:16:17.465Z,73.90
2022-10-15T00:18:44.321Z,74.11
2022-10-15T00:21:14.269Z,73.90
2022-10-15T00:23:41.876Z,73.86
2022-10-15T00:26:14.542Z,74.01
2022-10-15T00:28:41.877Z,74.07
2022-10-15T00:31:14.651Z,73.95
2022-10-15T00:33:42.513Z,73.70
2022-10-15T00:36:13.311Z,73.95
2022-10-15T00:38:40.279Z,73.98
2022-10-15T00:41:09.486Z,73.94
2022-10-15T00:43:50.050Z,74.08
2022-10-15T00:46:25.578Z,74.27
2022-10-15T00:48:59.292Z,74.24
2022-10-15T00:51:31.492Z,74.25
2022-10-15T00:53:58.191Z,74.26
2022-10-15T00:56:27.828Z,74.35
2022-10-15T00:58:56.139Z,74.33
2022-10-15T01:01:25.872Z,74.39
2022-10-15T01:03:55.776Z,74.18
2022-10-15T01:06:23.242Z,74.22
2022-10-15T01:08:50.283Z,74.27
2022-10-15T01:11:37.215Z,74.32
2022-10-15T01:14:19.029Z,74.23
2022-10-15T01:16:50.985Z,74.12
2022-10-15T01:19:54.387Z,74.18
2022-10-15T01:22:51.844Z,74.12
2022-10-15T01:25:55.911Z,74.21
2022-10-15T01:28:34.807Z,74.13
2022-10-15T01:31:27.250Z,74.56
2022-10-15T01:34:06.183Z,74.37
2022-10-15T01:36:51.747Z,74.44
2022-10-15T01:39:29.120Z,74.64
2022-10-15T01:42:20.001Z,74.40
2022-10-15T01:45:02.959Z,74.53
2022-10-15T01:47:48.557Z,74.57
2022-10-15T01:50:18.182Z,74.79
2022-10-15T01:52:45.195Z,74.71
2022-10-15T01:55:15.839Z,74.50
2022-10-15T01:57:44.947Z,74.53
2022-10-15T02:00:12.243Z,74.49
2022-10-15T02:02:38.905Z,74.55
2022-10-15T02:05:08.333Z,74.86
2022-10-15T02:07:53.568Z,74.69
2022-10-15T02:10:40.389Z,74.90
2022-10-15T02:13:19.076Z,74.84
2022-10-15T02:15:54.810Z,74.81
2022-10-15T02:18:48.792Z,74.89
2022-10-15T02:21:27.253Z,75.14
2022-10-15T02:24:06.227Z,75.02
2022-10-15T02:26:37.405Z,75.30
2022-10-15T02:29:07.365Z,75.37
2022-10-15T02:31:37.219Z,75.29
2022-10-15T02:34:08.106Z,75.14
2022-10-15T02:36:36.596Z,75.25
2022-10-15T02:39:04.650Z,75.38
2022-10-15T02:41:35.533Z,75.41
2022-10-15T02:44:04.044Z,75.93
2022-10-15T02:46:30.890Z,75.66
2022-10-15T02:48:57.595Z,75.30
2022-10-15T02:51:27.085Z,75.49
2022-10-15T02:53:53.780Z,75.26
2022-10-15T02:56:20.424Z,75.61
2022-10-15T02:58:47.261Z,75.48
2022-10-15T03:01:13.931Z,75.48
2022-10-15T03:03:40.714Z,75.66
2022-10-15T03:06:07.940Z,75.80
2022-10-15T03:08:34.600Z,75.96
2022-10-15T03:11:01.977Z,76.16
2022-10-15T03:13:29.061Z,76.43
2022-10-15T03:15:56.546Z,76.46
2022-10-15T03:18:23.378Z,76.43
2022-10-15T03:20:56.372Z,76.60
2022-10-15T03:23:23.712Z,76.84
2022-10-15T03:25:50.609Z,76.83
2022-10-15T03:28:17.281Z,76.90
2022-10-15T03:30:44.117Z,76.89
2022-10-15T03:33:11.046Z,76.87
2022-10-15T03:35:39.120Z,76.95
2022-10-15T03:38:07.210Z,76.86
2022-10-15T03:40:34.435Z,76.91
2022-10-15T03:43:01.336Z,76.82
2022-10-15T03:45:28.049Z,76.86
2022-10-15T03:47:54.643Z,77.08
2022-10-15T03:50:21.493Z,77.03
2022-10-15T03:52:48.158Z,77.01
2022-10-15T03:55:14.717Z,76.81
2022-10-15T03:57:42.260Z,77.04
2022-10-15T04:00:09.565Z,77.03
2022-10-15T04:02:36.170Z,77.50
2022-10-15T04:05:03.226Z,77.46
2022-10-15T04:07:30.008Z,77.52
2022-10-15T04:09:56.637Z,77.52
2022-10-15T04:12:23.691Z,77.49
2022-10-15T04:14:50.688Z,77.55
2022-10-15T04:17:17.700Z,77.54
2022-10-15T04:19:44.623Z,77.49
2022-10-15T04:22:11.581Z,77.48
2022-10-15T04:24:38.293Z,77.59
2022-10-15T04:27:04.976Z,77.38
2022-10-15T04:29:31.707Z,77.77
2022-10-15T04:31:58.353Z,77.83
2022-10-15T04:34:25.515Z,77.72
2022-10-15T04:36:52.206Z,77.84
2022-10-15T04:39:18.831Z,77.67
2022-10-15T04:41:45.513Z,77.91
2022-10-15T04:44:12.255Z,77.91
2022-10-15T04:46:39.160Z,77.85
2022-10-15T04:49:05.871Z,77.74
2022-10-15T04:51:32.525Z,77.80
2022-10-15T04:53:59.092Z,78.02
2022-10-15T04:56:25.871Z,77.79
2022-10-15T04:58:52.481Z,77.96
2022-10-15T05:01:20.626Z,77.78
2022-10-15T05:03:49.074Z,77.71
2022-10-15T05:06:21.182Z,77.80
2022-10-15T05:08:48.887Z,77.81
2022-10-15T05:11:24.443Z,77.72
2022-10-15T05:13:51.581Z,77.63
2022-10-15T05:16:19.680Z,77.57
2022-10-15T05:18:48.667Z,77.67
2022-10-15T05:21:16.538Z,77.38
2022-10-15T05:23:44.085Z,77.46
2022-10-15T05:26:21.181Z,77.44
2022-10-15T05:28:48.559Z,77.38
2022-10-15T05:31:20.652Z,77.46
2022-10-15T05:33:48.576Z,77.45
2022-10-15T05:36:20.950Z,77.79
2022-10-15T05:38:59.163Z,77.57
2022-10-15T05:41:26.796Z,77.62
2022-10-15T05:43:55.047Z,77.71
2022-10-15T05:46:22.097Z,77.84
2022-10-15T05:48:53.751Z,77.80
2022-10-15T05:51:21.363Z,77.68
2022-10-15T05:53:47.995Z,77.72
2022-10-15T05:56:15.589Z,77.81
2022-10-15T05:58:42.293Z,77.69
2022-10-15T06:01:11.489Z,77.60
2022-10-15T06:03:39.209Z,77.82
2022-10-15T06:06:13.383Z,77.93
2022-10-15T06:08:40.143Z,77.82
2022-10-15T06:11:08.592Z,77.86
2022-10-15T06:13:39.342Z,78.26
2022-10-15T06:16:06.411Z,77.89
2022-10-15T06:18:33.080Z,78.06
2022-10-15T06:20:59.990Z,78.15
2022-10-15T06:23:26.697Z,78.17
2022-10-15T06:25:53.504Z,78.54
2022-10-15T06:28:20.313Z,78.55
2022-10-15T06:30:47.044Z,78.92
2022-10-15T06:33:16.162Z,78.97
2022-10-15T06:35:42.865Z,78.96
2022-10-15T06:38:09.624Z,79.26
2022-10-15T06:40:37.687Z,79.30
2022-10-15T06:43:09.049Z,79.30
2022-10-15T06:45:38.390Z,79.49
2022-10-15T06:48:05.928Z,79.62
2022-10-15T06:50:33.377Z,79.79
2022-10-15T06:53:00.524Z,80.02
2022-10-15T06:55:28.993Z,79.94
2022-10-15T06:57:56.728Z,80.04
2022-10-15T07:00:24.196Z,80.02
2022-10-15T07:02:51.416Z,80.07
2022-10-15T07:05:19.609Z,80.13
2022-10-15T07:07:53.853Z,80.20
2022-10-15T07:12:47.848Z,80.08
2022-10-15T07:15:14.802Z,80.10
2022-10-15T07:17:48.479Z,80.22
2022-10-15T07:20:18.754Z,80.19
2022-10-15T07:22:47.442Z,80.20
2022-10-15T07:25:14.674Z,80.27
2022-10-15T07:27:41.382Z,80.24
2022-10-15T07:30:08.979Z,80.33
2022-10-15T07:32:35.970Z,80.59
2022-10-15T07:35:03.067Z,80.27
2022-10-15T07:37:29.906Z,80.19
2022-10-15T07:39:56.605Z,79.95
2022-10-15T07:44:59.590Z,79.86
2022-10-15T07:47:26.481Z,79.79
2022-10-15T07:49:53.349Z,79.69
2022-10-15T07:52:20.113Z,79.42
2022-10-15T07:54:46.789Z,79.45
2022-10-15T07:57:13.477Z,79.38
2022-10-15T07:59:40.201Z,78.95
2022-10-15T08:02:07.086Z,78.40
2022-10-15T08:04:35.098Z,78.20
2022-10-15T08:07:03.954Z,77.95
2022-10-15T08:09:31.399Z,77.55
2022-10-15T08:11:58.003Z,76.75
2022-10-15T08:14:28.073Z,76.66
2022-10-15T08:16:54.693Z,76.14
2022-10-15T08:19:21.383Z,75.49
2022-10-15T08:21:48.126Z,74.52
2022-10-15T08:24:14.747Z,73.90
2022-10-15T08:26:41.593Z,73.10
2022-10-15T08:29:08.431Z,73.13
2022-10-15T08:31:35.400Z,72.79
2022-10-15T08:34:02.734Z,71.79
2022-10-15T08:36:29.453Z,71.08
2022-10-15T08:38:56.196Z,70.36
2022-10-15T08:41:47.889Z,70.08
2022-10-15T08:44:41.571Z,69.75
2022-10-15T08:47:17.515Z,69.20
2022-10-15T08:49:50.842Z,68.69
2022-10-15T08:52:24.705Z,67.86
2022-10-15T08:54:53.243Z,67.47
2022-10-15T08:57:45.096Z,67.31
2022-10-15T09:09:52.231Z,64.30
2022-10-15T09:12:37.592Z,63.85
2022-10-15T09:15:10.655Z,63.54
2022-10-15T09:17:37.597Z,63.25
2022-10-15T09:20:07.973Z,63.13
2022-10-15T09:22:35.609Z,62.24
2022-10-15T09:25:15.820Z,61.67
2022-10-15T09:27:43.465Z,61.66
2022-10-15T09:30:12.908Z,61.69
2022-10-15T09:33:05.969Z,61.19
2022-10-15T09:35:44.733Z,60.50
2022-10-15T09:38:46.704Z,59.99
2022-10-15T09:41:42.472Z,59.78
2022-10-15T09:44:15.786Z,59.13
2022-10-15T09:46:50.031Z,58.86
2022-10-15T09:49:21.405Z,58.68
2022-10-15T09:52:08.365Z,58.03
2022-10-15T09:54:50.276Z,56.90
2022-10-15T09:57:19.289Z,56.55
2022-10-15T09:59:54.968Z,56.82
2022-10-15T10:02:27.543Z,56.25
2022-10-15T10:04:54.846Z,55.97
2022-10-15T10:07:36.655Z,55.50
2022-10-15T10:10:29.002Z,55.09
2022-10-15T10:12:57.227Z,54.97
2022-10-15T10:15:41.271Z,54.40
2022-10-15T10:18:28.290Z,54.21
2022-10-15T10:21:01.571Z,53.93
2022-10-15T10:23:37.763Z,53.23
2022-10-15T10:26:07.182Z,52.76
2022-10-15T10:28:56.781Z,52.52
2022-10-15T10:31:42.914Z,52.00
2022-10-15T10:34:16.091Z,51.89
2022-10-15T10:36:44.202Z,51.77
2022-10-15T10:39:13.307Z,52.39
2022-10-15T10:41:53.766Z,51.97
2022-10-15T10:44:33.289Z,51.85
2022-10-15T10:47:18.064Z,51.50
2022-10-15T10:49:47.522Z,51.11
2022-10-15T10:52:27.800Z,50.92
2022-10-15T10:58:55.725Z,50.99
2022-10-15T11:01:24.438Z,51.49
2022-10-15T11:03:51.550Z,51.39
2022-10-15T11:07:10.917Z,50.57
2022-10-15T11:10:15.927Z,49.97
2022-10-15T16:20:05.741Z,65.89
2022-10-15T16:22:32.416Z,66.59
2022-10-15T16:24:59.079Z,66.44
2022-10-15T16:27:27.185Z,66.40
2022-10-15T16:29:54.195Z,66.45
2022-10-15T16:32:20.928Z,66.68
2022-10-15T16:34:47.708Z,66.90
2022-10-15T16:37:14.292Z,66.56
2022-10-15T16:39:40.941Z,66.82
2022-10-15T16:42:08.668Z,66.88
2022-10-15T16:44:35.809Z,66.79
2022-10-15T16:47:02.475Z,66.59
2022-10-15T16:49:29.326Z,66.73
2022-10-15T16:51:56.010Z,66.74
2022-10-15T16:54:22.778Z,67.00
2022-10-15T16:56:52.737Z,67.01
2022-10-15T16:59:20.480Z,66.98
2022-10-15T17:01:47.288Z,66.82
2022-10-15T17:04:13.979Z,66.89
2022-10-15T17:06:40.668Z,66.91
2022-10-15T17:09:07.998Z,66.86
2022-10-15T17:11:40.285Z,67.09
2022-10-15T17:14:09.529Z,67.13
2022-10-15T17:16:40.925Z,67.24
2022-10-15T17:19:09.170Z,67.25
2022-10-15T17:21:36.276Z,67.33
2022-10-15T17:24:05.979Z,67.39
2022-10-15T17:26:41.504Z,67.53
2022-10-15T17:29:11.109Z,67.62
2022-10-15T17:31:37.951Z,67.69
2022-10-15T17:34:08.257Z,67.84
2022-10-15T17:36:45.077Z,67.83
2022-10-15T17:39:22.616Z,67.96
2022-10-15T17:41:50.974Z,67.97
2022-10-15T17:44:17.913Z,68.17
2022-10-15T17:46:44.607Z,68.15
2022-10-15T17:49:11.478Z,68.23
2022-10-15T17:51:38.447Z,68.19
2022-10-15T17:54:05.324Z,68.39
2022-10-15T17:56:34.952Z,68.33
2022-10-15T17:59:04.613Z,68.47
2022-10-15T18:01:56.831Z,68.53
2022-10-15T18:04:20.586Z,68.48
2022-10-15T18:06:47.646Z,68.56
2022-10-15T18:09:14.297Z,68.79
2022-10-15T18:11:41.051Z,68.68
2022-10-15T18:14:07.874Z,68.71
2022-10-15T18:16:34.496Z,69.01
2022-10-15T18:19:01.114Z,68.95
2022-10-15T18:21:28.579Z,69.30
2022-10-15T18:23:58.481Z,69.63
2022-10-15T18:26:25.176Z,69.44
2022-10-15T18:28:53.669Z,69.55
2022-10-15T18:31:21.779Z,70.04
2022-10-15T18:33:54.981Z,69.87
2022-10-15T18:36:24.505Z,69.89
2022-10-15T18:38:51.412Z,70.09
2022-10-15T18:41:33.592Z,69.70
2022-10-15T18:44:06.733Z,69.73
2022-10-15T18:46:34.751Z,69.66
2022-10-15T18:49:02.364Z,69.69
2022-10-15T18:51:29.282Z,69.39
2022-10-15T18:53:56.109Z,69.42
2022-10-15T18:56:22.887Z,69.79
2022-10-15T18:58:50.116Z,69.87
2022-10-15T19:01:30.410Z,69.98
2022-10-15T19:04:00.272Z,70.08
2022-10-15T19:11:07.191Z,70.01
2022-10-15T19:13:34.578Z,69.96
2022-10-15T19:16:03.339Z,69.95
2022-10-15T19:18:30.524Z,69.97
2022-10-15T19:20:57.285Z,69.90
2022-10-15T19:23:27.086Z,69.91
2022-10-15T19:25:53.953Z,69.96
2022-10-15T19:28:20.729Z,70.20
2022-10-15T19:30:58.254Z,69.99
2022-10-15T19:33:26.933Z,70.08
2022-10-15T19:35:53.972Z,69.83
2022-10-15T19:38:20.835Z,70.10
2022-10-15T19:40:49.479Z,70.38
2022-10-15T19:43:18.679Z,70.44
2022-10-15T19:45:46.485Z,70.62
2022-10-15T19:48:15.670Z,70.39
2022-10-15T19:50:48.493Z,70.53
2022-10-15T19:53:17.835Z,70.58
2022-10-15T19:55:54.560Z,70.75
2022-10-15T19:58:21.596Z,70.82
2022-10-15T20:00:52.863Z,70.71
2022-10-15T20:03:20.447Z,70.66
2022-10-15T20:05:48.020Z,71.08
2022-10-15T20:08:15.353Z,70.91
2022-10-15T20:10:44.472Z,70.96
2022-10-15T20:13:11.947Z,71.25
2022-10-15T20:15:42.904Z,71.18
2022-10-15T20:18:09.618Z,71.14
2022-10-15T20:20:38.619Z,71.22
2022-10-15T20:23:05.411Z,71.16
2022-10-15T20:25:32.051Z,71.42
2022-10-15T20:27:59.308Z,71.47
2022-10-15T20:30:25.995Z,71.45
2022-10-15T20:32:52.604Z,71.53
2022-10-15T20:35:20.525Z,71.78
2022-10-15T20:37:47.623Z,71.90
2022-10-15T20:40:14.389Z,72.05
2022-10-15T20:42:41.275Z,72.02
2022-10-15T20:45:14.312Z,72.20
2022-10-15T20:47:45.286Z,72.44
2022-10-15T20:50:16.677Z,72.42
2022-10-15T20:52:43.435Z,72.42
2022-10-15T20:55:10.930Z,72.60
2022-10-15T20:57:38.378Z,72.30
2022-10-15T21:00:07.372Z,72.32
2022-10-15T21:02:34.338Z,72.21
2022-10-15T21:05:00.976Z,72.34
2022-10-15T21:07:27.736Z,72.12
2022-10-15T21:09:54.822Z,72.09
2022-10-15T21:12:21.529Z,72.39
2022-10-15T21:14:48.179Z,72.43
2022-10-15T21:17:15.894Z,72.25
2022-10-15T21:19:42.512Z,72.24
2022-10-15T21:22:09.161Z,72.29
2022-10-15T21:24:36.303Z,72.43
2022-10-15T21:27:03.064Z,72.42
2022-10-15T21:29:29.739Z,72.48
2022-10-15T21:31:56.569Z,72.64
2022-10-15T21:34:27.584Z,73.05
2022-10-15T21:36:55.367Z,72.83
2022-10-15T21:39:22.772Z,72.71
2022-10-15T21:41:49.880Z,72.74
2022-10-15T21:44:16.580Z,72.72
2022-10-15T21:46:43.892Z,72.83
2022-10-15T21:49:10.652Z,73.00
2022-10-15T21:51:38.183Z,73.17
2022-10-15T21:54:06.664Z,73.21
2022-10-15T21:56:34.093Z,73.11
2022-10-15T21:59:01.190Z,73.07
2022-10-15T22:01:33.628Z,73.15
2022-10-15T22:04:03.033Z,73.30
2022-10-15T22:06:29.857Z,73.06
2022-10-15T22:08:56.785Z,73.29
2022-10-15T22:11:29.470Z,73.10
2022-10-15T22:13:59.598Z,73.17
2022-10-15T22:16:28.477Z,73.06
2022-10-15T22:18:56.184Z,73.06
2022-10-15T22:21:28.494Z,72.94
2022-10-15T22:23:56.196Z,72.83
2022-10-15T22:26:28.497Z,72.73
2022-10-15T22:28:58.310Z,72.61
2022-10-15T22:31:26.018Z,72.90
2022-10-15T22:33:53.121Z,72.72
2022-10-15T22:36:25.224Z,72.72
2022-10-15T22:39:03.462Z,72.63
2022-10-15T22:41:32.317Z,73.00
2022-10-15T22:43:59.325Z,72.88
2022-10-15T22:46:26.874Z,72.84
2022-10-15T22:48:53.962Z,72.83
2022-10-15T22:51:21.287Z,72.91
2022-10-15T22:53:48.133Z,73.13
2022-10-15T22:56:17.954Z,73.07
2022-10-15T22:58:45.606Z,72.96
2022-10-15T23:01:16.785Z,73.03
2022-10-15T23:03:45.849Z,73.17
2022-10-15T23:06:13.127Z,73.31
2022-10-15T23:08:40.548Z,73.33
2022-10-15T23:11:12.045Z,73.51
2022-10-15T23:13:40.233Z,73.47
2022-10-15T23:16:09.873Z,73.53
2022-10-15T23:18:36.674Z,73.68
2022-10-15T23:21:10.681Z,73.68
2022-10-15T23:23:37.731Z,73.64
2022-10-15T23:26:04.643Z,73.55
2022-10-15T23:28:31.277Z,73.24
2022-10-15T23:30:58.036Z,73.42
2022-10-15T23:33:26.998Z,73.46
2022-10-15T23:35:59.125Z,73.55
2022-10-15T23:38:26.238Z,73.42
2022-10-15T23:40:53.030Z,73.36
2022-10-15T23:43:19.853Z,73.64
2022-10-15T23:45:46.498Z,73.46
2022-10-15T23:48:13.452Z,73.66
2022-10-15T23:50:40.375Z,73.45
2022-10-15T23:53:06.982Z,73.53
2022-10-15T23:55:38.783Z,73.52
2022-10-15T23:58:06.317Z,73.41
